Terminal Aerodrome Forecast
Issued by NWS Goodland, KS

Home | Current Version | Previous Version | Text Only | Print | Product List | Glossary On
Versions: 1 2 3 4 5 6 7 8 9 10 11 12 13 14 15 16 17
000
FTUS43 KGLD 030409 AAA
TAFGLD
TAF AMD
KGLD 030409Z 0304/0324 28020G30KT P6SM OVC200
     FM030500 28012KT P6SM OVC200
     FM030800 25006KT P6SM SCT200
     FM031400 30007KT P6SM SKC
     FM031700 34006KT P6SM SCT250=

USA.gov is the U.S. government's official web portal to all federal, state and local government web resources and services.